Pythagoras — C6ZO4 — position and weather

sailwx.info

Track history (hours):
 
Tides and Currents Weather Stations Pressure Air Temp Water Temp Dewpoint Dewpoint Depression Visibility Wind Speed Wind Dir Waves Ship Positions

Pythagoras

Last reported at 2016-Nov-30 14:33 UTC. Time now 2016-Dec-05 02:22 UTC.
Position N 29°49' E 122°45'.

Length 190 m; draft 6.2 m.

Type: Cargo ship. MMSI: 311061300.

Date/timePositionNaut miles runAvg speedWind from/ knotsBaromVisibWave heightAir tempDewpointWater temp
2016-Nov-30 14:33N 29°49' E 122°45'1312.5
2016-Nov-30 13:32N 29°40' E 122°34'1918.1
2016-Nov-30 12:28N 29°49' E 122°14'4 3.9
2016-Nov-30 11:29N 29°53' E 122°13'0 0.0
2016-Nov-30 09:12N 29°53' E 122°13'7 1.4
2016-Nov-30 04:27N 29°48' E 122°07'1 0.5
2016-Nov-30 02:16N 29°48' E 122°06'0 0.0
2016-Nov-30 01:33N 29°48' E 122°06'1 0.8
2016-Nov-30 00:32N 29°48' E 122°07'0 0.0
2016-Nov-29 20:08N 29°48' E 122°07'0 0.0
2016-Nov-29 19:26N 29°48' E 122°07'0 0.0
2016-Nov-29 18:32N 29°48' E 122°07'0 0.0
2016-Nov-29 17:32N 29°48' E 122°07'0 0.0
2016-Nov-29 16:33N 29°48' E 122°07'0 0.0
2016-Nov-29 14:24N 29°48' E 122°07'0 0.0
2016-Nov-29 13:24N 29°48' E 122°07'0 0.0
2016-Nov-29 12:33N 29°48' E 122°07'0 0.0
2016-Nov-29 11:12N 29°48' E 122°07'0 0.0
2016-Nov-29 08:07N 29°48' E 122°07'0 0.0
2016-Nov-29 07:32N 29°48' E 122°07'0 0.0
2016-Nov-29 06:26N 29°48' E 122°07'0 0.0
2016-Nov-29 05:22N 29°48' E 122°07'0 0.0
2016-Nov-29 03:09N 29°48' E 122°07'0 0.0
2016-Nov-29 02:20N 29°48' E 122°07'0 0.0
2016-Nov-29 01:08N 29°48' E 122°07'0 0.0
2016-Nov-29 00:32N 29°48' E 122°07'0 0.0
2016-Nov-28 23:26N 29°48' E 122°07'0 0.0
2016-Nov-28 22:32N 29°48' E 122°07'0 0.0
2016-Nov-28 21:32N 29°48' E 122°07'0 0.0
2016-Nov-28 20:08N 29°48' E 122°07'0 0.0
2016-Nov-28 19:26N 29°48' E 122°07'0 0.0
2016-Nov-28 18:32N 29°48' E 122°07'0 0.0
2016-Nov-28 17:32N 29°48' E 122°07'0 0.0
2016-Nov-28 16:29N 29°48' E 122°07'0 0.0
2016-Nov-28 15:32N 29°48' E 122°07'0 0.0
2016-Nov-28 14:29N 29°48' E 122°07'0 0.0
2016-Nov-28 13:29N 29°48' E 122°07'0 0.0
2016-Nov-28 12:32N 29°48' E 122°07'0 0.0
2016-Nov-28 11:29N 29°48' E 122°07'0 0.0
2016-Nov-28 10:29N 29°48' E 122°07'0 0.0
2016-Nov-28 09:32N 29°48' E 122°07'0 0.0
2016-Nov-28 08:29N 29°48' E 122°07'0 0.0
2016-Nov-28 07:29N 29°48' E 122°07'0 0.0
2016-Nov-28 06:32N 29°48' E 122°07'0 0.0
2016-Nov-28 05:29N 29°48' E 122°07'0 0.0
2016-Nov-28 04:26N 29°48' E 122°07'0 0.0
2016-Nov-28 03:29N 29°48' E 122°07'0 0.0
2016-Nov-28 01:09N 29°48' E 122°07'0 0.0
2016-Nov-28 00:26N 29°48' E 122°07'0 0.0
2016-Nov-27 23:32N 29°48' E 122°07'0 0.0
2016-Nov-27 22:26N 29°48' E 122°07'0 0.0
2016-Nov-27 21:32N 29°48' E 122°07'0 0.0
2016-Nov-27 20:32N 29°48' E 122°07'0 0.0
2016-Nov-27 18:32N 29°48' E 122°07'0 0.0
2016-Nov-27 17:33N 29°48' E 122°07'0 0.0
2016-Nov-27 16:34N 29°48' E 122°07'0 0.0
2016-Nov-27 15:33N 29°48' E 122°07'0 0.0
2016-Nov-27 14:33N 29°48' E 122°07'0 0.0
2016-Nov-27 13:34N 29°48' E 122°07'0 0.0
2016-Nov-27 12:33N 29°48' E 122°07'0 0.0
2016-Nov-27 11:34N 29°48' E 122°07'0 0.0
2016-Nov-27 10:34N 29°48' E 122°07'0 0.0
2016-Nov-27 09:33N 29°48' E 122°07'0 0.0
2016-Nov-27 08:33N 29°48' E 122°07'0 0.0
2016-Nov-27 07:33N 29°48' E 122°07'0 0.0
2016-Nov-27 06:33N 29°48' E 122°07'0 0.0
2016-Nov-27 05:32N 29°48' E 122°07'0 0.0
2016-Nov-27 04:33N 29°48' E 122°07'0 0.0
2016-Nov-27 03:33N 29°48' E 122°07'0 0.0
2016-Nov-27 02:33N 29°48' E 122°07'0 0.0
2016-Nov-27 01:33N 29°48' E 122°07'0 0.0
2016-Nov-27 00:33N 29°48' E 122°07'  
2016-Nov-21 07:23N 29°48' E 122°07'0 0.0
2016-Nov-21 05:33N 29°48' E 122°07'0 0.0
2016-Nov-21 04:33N 29°48' E 122°07'0 0.0
2016-Nov-21 02:32N 29°48' E 122°07'  
Track history (hours):
 
Tides and Currents Weather Stations Pressure Air Temp Water Temp Dewpoint Dewpoint Depression Visibility Wind Speed Wind Dir Waves Ship Positions

Pythagoras

Last reported at 2016-Nov-30 14:33 UTC. Time now 2016-Dec-05 02:22 UTC.
Position N 29°49' E 122°45'.

Length 190 m; draft 6.2 m.

Type: Cargo ship. MMSI: 311061300.

Date/timePositionNaut miles runAvg speedWind from/ knotsBaromVisibWave heightAir tempDewpointWater temp
2016-Nov-30 14:33N 29°49' E 122°45'1312.5
2016-Nov-30 13:32N 29°40' E 122°34'1918.1
2016-Nov-30 12:28N 29°49' E 122°14'4 3.9
2016-Nov-30 11:29N 29°53' E 122°13'0 0.0
2016-Nov-30 09:12N 29°53' E 122°13'7 1.4
2016-Nov-30 04:27N 29°48' E 122°07'1 0.5
2016-Nov-30 02:16N 29°48' E 122°06'0 0.0
2016-Nov-30 01:33N 29°48' E 122°06'1 0.8
2016-Nov-30 00:32N 29°48' E 122°07'0 0.0
2016-Nov-29 20:08N 29°48' E 122°07'0 0.0
2016-Nov-29 19:26N 29°48' E 122°07'0 0.0
2016-Nov-29 18:32N 29°48' E 122°07'0 0.0
2016-Nov-29 17:32N 29°48' E 122°07'0 0.0
2016-Nov-29 16:33N 29°48' E 122°07'0 0.0
2016-Nov-29 14:24N 29°48' E 122°07'0 0.0
2016-Nov-29 13:24N 29°48' E 122°07'0 0.0
2016-Nov-29 12:33N 29°48' E 122°07'0 0.0
2016-Nov-29 11:12N 29°48' E 122°07'0 0.0
2016-Nov-29 08:07N 29°48' E 122°07'0 0.0
2016-Nov-29 07:32N 29°48' E 122°07'0 0.0
2016-Nov-29 06:26N 29°48' E 122°07'0 0.0
2016-Nov-29 05:22N 29°48' E 122°07'0 0.0
2016-Nov-29 03:09N 29°48' E 122°07'0 0.0
2016-Nov-29 02:20N 29°48' E 122°07'0 0.0
2016-Nov-29 01:08N 29°48' E 122°07'0 0.0
2016-Nov-29 00:32N 29°48' E 122°07'0 0.0
2016-Nov-28 23:26N 29°48' E 122°07'0 0.0
2016-Nov-28 22:32N 29°48' E 122°07'0 0.0
2016-Nov-28 21:32N 29°48' E 122°07'0 0.0
2016-Nov-28 20:08N 29°48' E 122°07'0 0.0
2016-Nov-28 19:26N 29°48' E 122°07'0 0.0
2016-Nov-28 18:32N 29°48' E 122°07'0 0.0
2016-Nov-28 17:32N 29°48' E 122°07'0 0.0
2016-Nov-28 16:29N 29°48' E 122°07'0 0.0
2016-Nov-28 15:32N 29°48' E 122°07'0 0.0
2016-Nov-28 14:29N 29°48' E 122°07'0 0.0
2016-Nov-28 13:29N 29°48' E 122°07'0 0.0
2016-Nov-28 12:32N 29°48' E 122°07'0 0.0
2016-Nov-28 11:29N 29°48' E 122°07'0 0.0
2016-Nov-28 10:29N 29°48' E 122°07'0 0.0
2016-Nov-28 09:32N 29°48' E 122°07'0 0.0
2016-Nov-28 08:29N 29°48' E 122°07'0 0.0
2016-Nov-28 07:29N 29°48' E 122°07'0 0.0
2016-Nov-28 06:32N 29°48' E 122°07'0 0.0
2016-Nov-28 05:29N 29°48' E 122°07'0 0.0
2016-Nov-28 04:26N 29°48' E 122°07'0 0.0
2016-Nov-28 03:29N 29°48' E 122°07'0 0.0
2016-Nov-28 01:09N 29°48' E 122°07'0 0.0
2016-Nov-28 00:26N 29°48' E 122°07'0 0.0
2016-Nov-27 23:32N 29°48' E 122°07'0 0.0
2016-Nov-27 22:26N 29°48' E 122°07'0 0.0
2016-Nov-27 21:32N 29°48' E 122°07'0 0.0
2016-Nov-27 20:32N 29°48' E 122°07'0 0.0
2016-Nov-27 18:32N 29°48' E 122°07'0 0.0
2016-Nov-27 17:33N 29°48' E 122°07'0 0.0
2016-Nov-27 16:34N 29°48' E 122°07'0 0.0
2016-Nov-27 15:33N 29°48' E 122°07'0 0.0
2016-Nov-27 14:33N 29°48' E 122°07'0 0.0
2016-Nov-27 13:34N 29°48' E 122°07'0 0.0
2016-Nov-27 12:33N 29°48' E 122°07'0 0.0
2016-Nov-27 11:34N 29°48' E 122°07'0 0.0
2016-Nov-27 10:34N 29°48' E 122°07'0 0.0
2016-Nov-27 09:33N 29°48' E 122°07'0 0.0
2016-Nov-27 08:33N 29°48' E 122°07'0 0.0
2016-Nov-27 07:33N 29°48' E 122°07'0 0.0
2016-Nov-27 06:33N 29°48' E 122°07'0 0.0
2016-Nov-27 05:32N 29°48' E 122°07'0 0.0
2016-Nov-27 04:33N 29°48' E 122°07'0 0.0
2016-Nov-27 03:33N 29°48' E 122°07'0 0.0
2016-Nov-27 02:33N 29°48' E 122°07'0 0.0
2016-Nov-27 01:33N 29°48' E 122°07'0 0.0
2016-Nov-27 00:33N 29°48' E 122°07'  
2016-Nov-21 07:23N 29°48' E 122°07'0 0.0
2016-Nov-21 05:33N 29°48' E 122°07'0 0.0
2016-Nov-21 04:33N 29°48' E 122°07'0 0.0
2016-Nov-21 02:32N 29°48' E 122°07'  

Dump ship's entire track history